Flight Track Log - Related Links

Times and Time Zones

All times are in EDT time to prevent confusion due to time zone crossing. See the UAL4236 flight status page for this flight to view local times or setup timezone preferences in your user account.

Time Position Orientation Groundspeed Altitude Reporting Facility
EDT Latitude Longitude Course Direction KTS MPH feet Rate Location/Type
Sat 10:22:14 29.9617 -95.3436 276° West 150 173 600  Level Houston Center
Sat 10:22:45 29.9367 -95.3467 186° South 197 227 1,600 2,022 Climbing Houston Center
Sat 10:23:46 29.8981 -95.4042 232° Southwest 243 280 3,700 2,439 Climbing Houston Center
Sat 10:24:48 29.8589 -95.4814 240° Southwest 269 310 6,600 2,598 Climbing Houston Center
Sat 10:25:00 30.0270 -95.7431 277° West  Level FlightAware Approximate
Sat 10:25:53 29.8614 -95.5561 272° West 272 313 9,200  Level Houston Center
Sat 10:26:00 30.0372 -95.8460 276° West  Level FlightAware Approximate
Sat 10:26:55 29.8992 -95.6608 293° West 296 341 11,000  Level Houston Center
Sat 10:27:00 30.0458 -95.9491 276° West  Level FlightAware Approximate
Sat 10:28:00 29.9233 -95.7694 277° West  Level Estimated
Sat 10:28:59 29.9700 -95.8678 277° West 351 404 14,500  Level Houston Center
Sat 10:30:00 30.0058 -95.9719 292° West 351 404 16,400 1,659 Climbing Houston Center
Sat 10:31:02 30.0461 -96.0867 292° West 351 404 17,900 1,500 Climbing Houston Center
Sat 10:32:04 30.0817 -96.1928 291° West 355 409 19,500 1,452 Climbing Houston Center
Sat 10:33:06 30.1083 -96.3033 286° West 359 413 20,900 1,355 Climbing Houston Center
Sat 10:34:08 30.1267 -96.4236 280° West 363 418 22,300 1,016 Climbing Houston Center
Sat 10:35:10 30.1444 -96.5425 280° West 371 427 23,000 629 Climbing Houston Center
Sat 10:36:12 30.1639 -96.6678 280° West 387 445 23,600 1,016 Climbing Houston Center
Sat 10:37:14 30.1853 -96.8125 280° West 386 444 25,100 1,306 Climbing Houston Center
Sat 10:38:16 30.2022 -96.9344 279° West 381 438 26,300 1,161 Climbing Houston Center
Sat 10:39:18 30.2250 -97.0500 283° West 369 425 27,500 1,073 Climbing Houston Center
Sat 10:40:19 30.2483 -97.1639 283° West 360 414 28,500 927 Climbing Houston Center
Sat 10:41:21 30.2703 -97.2800 282° West 363 418 29,400 919 Climbing Houston Center
Sat 10:42:23 30.2928 -97.3961 283° West 364 419 30,400 968 Climbing Houston Center
Sat 10:43:25 30.3153 -97.5100 283° West 360 414 31,400 919 Climbing Houston Center
Sat 10:44:27 30.3375 -97.6269 282° West 366 421 32,300 919 Climbing Houston Center
Sat 10:45:29 30.3603 -97.7417 283° West 363 418 33,300 780 Climbing Houston Center
Sat 10:46:30 30.3825 -97.8578 283° West 364 419 33,900 341 Climbing Houston Center
Sat 10:47:32 30.4033 -97.9764 282° West 370 426 34,000 48 Climbing Houston Center
Sat 10:48:34 30.4308 -98.1183 283° West 381 438 34,000  Level Houston Center
Sat 10:49:36 30.4539 -98.2403 282° West 383 441 34,000  Level Houston Center
Sat 10:50:37 30.4764 -98.3611 282° West 381 438 34,000  Level Houston Center
Sat 10:51:39 30.4994 -98.4828 282° West 382 440 34,000  Level Houston Center
Sat 10:52:41 30.5197 -98.6036 281° West 380 437 34,000  Level Houston Center
Sat 10:53:43 30.5425 -98.7253 282° West 381 438 34,000  Level Houston Center
Sat 10:54:45 30.5658 -98.8478 283° West 385 443 34,000  Level Houston Center
Sat 10:55:46 30.5881 -98.9692 282° West 382 440 34,000  Level Houston Center
Sat 10:56:48 30.6097 -99.0900 282° West 379 436 34,000  Level Houston Center
Sat 10:57:50 30.6331 -99.2142 282° West 380 437 34,000  Level Houston Center
Sat 10:58:52 30.6536 -99.3333 281° West 378 435 34,000  Level Houston Center
Sat 10:59:54 30.6786 -99.4769 281° West 380 437 34,000  Level Houston Center
Sat 11:00:56 30.7000 -99.5956 282° West 377 434 34,000  Level Houston Center
Sat 11:01:58 30.7208 -99.7139 282° West 376 433 34,000  Level Houston Center
Sat 11:03:00 30.7389 -99.8289 280° West 367 422 34,000  Level Houston Center
Sat 11:04:01 30.7614 -99.9467 283° West 372 428 34,000  Level Houston Center
Sat 11:05:03 30.7800 -100.0636 281° West 370 426 34,000  Level Houston Center
Sat 11:06:05 30.8053 -100.2056 282° West 376 433 34,000  Level Houston Center
Sat 11:07:07 30.8250 -100.3222 281° West 370 426 34,000  Level Houston Center
Sat 11:08:09 30.8456 -100.4400 282° West 375 432 34,000  Level Houston Center
Sat 11:09:10 30.8636 -100.5583 280° West 378 435 34,000  Level Houston Center
Sat 11:10:12 30.8847 -100.6739 282° West 368 423 34,000  Level Houston Center
Sat 11:11:14 30.9044 -100.7903 281° West 366 421 34,000  Level Houston Center
Sat 11:12:16 30.9278 -100.9303 281° West 364 419 34,000  Level Houston Center
Sat 11:13:18 30.9467 -101.0467 281° West 360 414 34,000  Level Houston Center
Sat 11:14:20 30.9650 -101.1633 280° West 364 419 34,000  Level Houston Center
Sat 11:15:22 30.9844 -101.2778 281° West 363 418 34,000  Level Houston Center
Sat 11:16:24 31.0047 -101.4100 280° West 365 420 34,000  Level Houston Center
Sat 11:16:39 31.0078 -101.4331 279° West 366 421 34,000  Level Albuquerque Center
Sat 11:17:41 31.0275 -101.5478 281° West 363 418 34,000  Level Albuquerque Center
Sat 11:18:43 31.0450 -101.6642 280° West 363 418 34,000  Level Albuquerque Center
Sat 11:19:45 31.0628 -101.7808 280° West 365 420 34,000  Level Albuquerque Center
Sat 11:20:47 31.0844 -101.9200 280° West 364 419 34,000  Level Albuquerque Center
Sat 11:21:49 31.0997 -102.0208 280° West 377 434 34,000  Level Albuquerque Center
Sat 11:22:50 31.1208 -102.1614 280° West 369 425 34,000  Level Albuquerque Center
Sat 11:23:52 31.1397 -102.2775 281° West 366 421 34,000  Level Albuquerque Center
Sat 11:24:54 31.1572 -102.3942 280° West 365 420 34,000  Level Albuquerque Center
Sat 11:25:56 31.1750 -102.5111 280° West 365 420 34,000  Level Albuquerque Center
Sat 11:26:58 31.1919 -102.6300 279° West 361 415 34,000  Level Albuquerque Center
Sat 11:28:00 31.2106 -102.7469 281° West 364 419 34,000  Level Albuquerque Center
Sat 11:29:02 31.2275 -102.8636 280° West 365 420 34,000  Level Albuquerque Center
Sat 11:30:04 31.2481 -103.0039 280° West 366 421 34,000  Level Albuquerque Center
Sat 11:31:06 31.2650 -103.1214 280° West 366 421 34,000  Level Albuquerque Center
Sat 11:32:08 31.2819 -103.2378 280° West 365 420 34,000  Level Albuquerque Center
Sat 11:33:10 31.2981 -103.3542 279° West 364 419 34,000  Level Albuquerque Center
Sat 11:34:11 31.3164 -103.4722 280° West 368 423 34,000  Level Albuquerque Center
Sat 11:35:13 31.3314 -103.5900 279° West 367 422 34,000  Level Albuquerque Center
Sat 11:36:15 31.3519 -103.7308 280° West 368 423 34,000  Level Albuquerque Center
Sat 11:37:17 31.3683 -103.8394 280° West 370 426 34,000  Level Albuquerque Center
Sat 11:38:19 31.3842 -103.9569 279° West 368 423 34,000  Level Albuquerque Center
Sat 11:39:20 31.4008 -104.0753 279° West 369 425 34,000  Level Albuquerque Center
Sat 11:40:22 31.4172 -104.1942 279° West 371 427 34,000  Level Albuquerque Center
Sat 11:41:24 31.4383 -104.3369 280° West 372 428 34,000  Level Albuquerque Center
Sat 11:42:26 31.4528 -104.4550 278° West 371 427 34,000  Level Albuquerque Center
Sat 11:43:27 31.4661 -104.5733 278° West 369 425 34,000 -244 Level Albuquerque Center
Sat 11:44:29 31.4794 -104.6936 277° West 373 429 33,500 -1,306 Descending Albuquerque Center
Sat 11:45:31 31.4900 -104.8125 276° West 371 427 31,300 -2,293 Descending Albuquerque Center
Sat 11:46:32 31.5042 -104.9358 278° West 381 438 28,800 -2,683 Descending Albuquerque Center
Sat 11:47:34 31.5186 -105.0861 276° West 388 447 25,800 -2,710 Descending Albuquerque Center
Sat 11:48:36 31.5325 -105.2125 277° West 393 452 23,200 -2,488 Descending Albuquerque Center
Sat 11:49:37 31.5428 -105.3358 276° West 386 444 20,700 -2,581 Descending Albuquerque Center
Sat 11:50:02 31.5469 -105.3958 275° West 370 426 19,500 -2,419 Descending Albuquerque Center
Sat 11:50:39 31.5544 -105.4542 279° West 371 427 18,200 -2,557 Descending Albuquerque Center
Sat 11:51:03 31.5586 -105.5128 275° West 364 419 16,900 -2,710 Descending Albuquerque Center
Sat 11:51:41 31.5653 -105.5700 278° West 361 415 15,400 -2,459 Descending Albuquerque Center
Sat 11:52:04 31.5694 -105.6272 275° West 355 409 14,400 -1,967 Descending Albuquerque Center
Sat 11:52:42 31.5767 -105.6825 279° West 352 405 13,400 -1,700 Descending Albuquerque Center
Sat 11:53:04 31.5817 -105.7492 275° West 350 403 12,700 -1,258 Descending Albuquerque Center
Sat 11:53:44 31.5947 -105.8169 283° West 349 402 12,100 -787 Descending Albuquerque Center
Sat 11:54:05 31.6186 -105.8444 316° Northwest 326 375 11,900 -984 Descending Albuquerque Center
Sat 11:54:45 31.6608 -105.8781 326° Northwest 298 343 11,100 -1,180 Descending Albuquerque Center
Sat 11:55:06 31.6844 -105.9003 321° Northwest 275 316 10,700 -1,161 Descending Albuquerque Center
Sat 11:55:47 31.7119 -105.9408 309° West 280 322 9,900 -1,200 Descending Albuquerque Center
Sat 11:56:06 31.7189 -105.9714 285° West 261 300 9,500 -1,279 Descending Albuquerque Center
Sat 11:56:48 31.7333 -106.0231 288° West 268 308 8,600 -1,377 Descending Albuquerque Center
Sat 11:57:07 31.7411 -106.0558 286° West 266 306 8,100 -1,355 Descending Albuquerque Center
Sat 11:57:50 31.7553 -106.1064 288° West 268 308 7,200 -1,279 Descending Albuquerque Center
Sat 11:58:08 31.7661 -106.1344 294° West 259 298 6,800 -1,333 Descending Albuquerque Center

Login

Don't have an account? Register now (free) for customized features, flight alerts, and more!